createdAt,value
2018-10-19T00:00:38.180Z,10.33
2018-10-19T00:01:38.170Z,10.34
2018-10-19T00:02:38.162Z,10.48
2018-10-19T00:03:38.157Z,10.37
2018-10-19T00:04:38.162Z,10.35
2018-10-19T00:05:38.135Z,10.38
2018-10-19T00:06:38.131Z,10.38
2018-10-19T00:07:38.135Z,10.28
2018-10-19T00:08:38.119Z,10.37
2018-10-19T00:09:38.109Z,10.37
2018-10-19T00:10:38.107Z,10.34
2018-10-19T00:11:38.092Z,10.41
2018-10-19T00:12:38.140Z,10.41
2018-10-19T00:13:38.074Z,10.34
2018-10-19T00:14:38.075Z,10.40
2018-10-19T00:15:38.067Z,10.38
2018-10-19T00:16:38.056Z,10.40
2018-10-19T00:17:38.049Z,10.41
2018-10-19T00:18:38.039Z,10.49
2018-10-19T00:19:38.028Z,10.40
2018-10-19T00:20:38.026Z,10.40
2018-10-19T00:21:38.015Z,10.38
2018-10-19T00:22:38.016Z,10.41
2018-10-19T00:23:38.006Z,10.44
2018-10-19T00:24:37.996Z,10.42
2018-10-19T00:25:37.995Z,10.35
2018-10-19T00:26:37.984Z,10.37
2018-10-19T00:27:37.973Z,10.38
2018-10-19T00:28:37.981Z,10.40
2018-10-19T00:29:37.976Z,10.40
2018-10-19T00:30:37.955Z,10.41
2018-10-19T00:31:37.948Z,10.38
2018-10-19T00:32:37.939Z,10.40
2018-10-19T00:33:37.934Z,10.42
2018-10-19T00:34:37.916Z,10.40
2018-10-19T00:35:37.916Z,10.37
2018-10-19T00:36:37.919Z,10.38
2018-10-19T00:37:37.900Z,10.34
2018-10-19T00:38:37.895Z,10.38
2018-10-19T00:39:37.882Z,10.31
2018-10-19T00:40:37.880Z,10.41
2018-10-19T00:41:37.869Z,10.37
2018-10-19T00:42:37.862Z,10.40
2018-10-19T00:43:37.862Z,10.34
2018-10-19T00:44:37.847Z,10.33
2018-10-19T00:45:37.842Z,10.33
2018-10-19T00:46:37.830Z,10.30
2018-10-19T00:47:37.824Z,10.25
2018-10-19T00:48:37.838Z,10.35
2018-10-19T00:49:37.810Z,10.23
2018-10-19T00:50:37.806Z,10.30
2018-10-19T00:51:37.797Z,10.31
2018-10-19T00:52:37.787Z,10.28
2018-10-19T00:53:37.779Z,10.30
2018-10-19T00:54:37.773Z,10.25
2018-10-19T00:55:37.773Z,10.30
2018-10-19T00:56:37.759Z,10.23
2018-10-19T00:57:37.748Z,10.30
2018-10-19T00:58:37.758Z,10.33
2018-10-19T00:59:37.735Z,10.33
2018-10-19T01:00:37.736Z,10.31
2018-10-19T01:01:37.720Z,10.31
2018-10-19T01:02:37.717Z,10.28
2018-10-19T01:03:37.701Z,10.35
2018-10-19T01:04:37.707Z,10.30
2018-10-19T01:05:37.693Z,10.35
2018-10-19T01:06:37.682Z,10.31
2018-10-19T01:07:37.686Z,10.26
2018-10-19T01:08:37.665Z,10.26
2018-10-19T01:09:37.658Z,10.19
2018-10-19T01:10:37.653Z,10.20
2018-10-19T01:11:37.643Z,10.25
2018-10-19T01:12:37.665Z,10.12
2018-10-19T01:13:37.628Z,10.16
2018-10-19T01:14:37.624Z,10.15
2018-10-19T01:15:46.062Z,10.15
2018-10-19T01:17:31.660Z,10.16
2018-10-19T01:18:31.222Z,10.07
2018-10-19T01:19:31.349Z,10.19
2018-10-19T01:20:31.167Z,10.12
2018-10-19T01:21:31.164Z,10.01
2018-10-19T01:22:31.153Z,10.09
2018-10-19T01:23:31.156Z,10.12
2018-10-19T01:24:31.140Z,10.12
2018-10-19T01:25:31.134Z,10.12
2018-10-19T01:26:31.125Z,10.12
2018-10-19T01:27:31.120Z,10.10
2018-10-19T01:28:31.112Z,10.09
2018-10-19T01:29:31.117Z,10.05
2018-10-19T01:30:31.092Z,10.07
2018-10-19T01:31:31.090Z,10.05
2018-10-19T01:32:31.081Z,10.09
2018-10-19T01:33:31.075Z,10.10
2018-10-19T01:34:31.114Z,10.10
2018-10-19T01:35:31.059Z,10.10
2018-10-19T01:36:31.098Z,10.07
2018-10-19T01:37:31.053Z,9.99
2018-10-19T01:38:31.036Z,9.99
2018-10-19T01:39:31.026Z,10.10
2018-10-19T01:40:31.016Z,10.02
2018-10-19T01:41:31.011Z,9.98
2018-10-19T01:42:30.998Z,10.07
2018-10-19T01:43:31.015Z,10.02
2018-10-19T01:44:31.009Z,9.97
2018-10-19T01:45:30.983Z,9.98
2018-10-19T01:46:30.976Z,10.10
2018-10-19T01:47:30.959Z,10.02
2018-10-19T01:48:30.961Z,10.09
2018-10-19T01:49:30.948Z,10.10
2018-10-19T01:50:30.943Z,10.01
2018-10-19T01:51:30.934Z,10.09
2018-10-19T01:52:30.928Z,10.10
2018-10-19T01:53:30.924Z,9.98
2018-10-19T01:54:30.910Z,10.02
2018-10-19T01:55:30.910Z,10.09
2018-10-19T01:56:30.902Z,10.01
2018-10-19T01:57:30.914Z,9.99
2018-10-19T01:58:30.886Z,10.01
2018-10-19T01:59:30.874Z,10.07
2018-10-19T02:00:30.869Z,10.10
2018-10-19T02:01:30.856Z,9.99
2018-10-19T02:02:30.848Z,10.05
2018-10-19T02:03:30.841Z,10.09
2018-10-19T02:04:30.833Z,10.05
2018-10-19T02:05:30.852Z,10.09
2018-10-19T02:06:30.821Z,10.02
2018-10-19T02:07:30.814Z,10.12
2018-10-19T02:08:30.807Z,10.07
2018-10-19T02:09:30.794Z,9.95
2018-10-19T02:10:30.786Z,10.01
2018-10-19T02:11:30.796Z,9.97
2018-10-19T02:12:30.773Z,9.98
2018-10-19T02:13:30.764Z,9.95
2018-10-19T02:14:30.761Z,9.89
2018-10-19T02:15:30.752Z,9.86
2018-10-19T02:16:30.746Z,9.87
2018-10-19T02:17:30.739Z,9.84
2018-10-19T02:18:30.731Z,9.82
2018-10-19T02:19:30.752Z,9.83
2018-10-19T02:20:30.717Z,9.76
2018-10-19T02:21:30.705Z,9.80
2018-10-19T02:22:30.695Z,9.74
2018-10-19T02:23:30.690Z,9.82
2018-10-19T02:24:30.682Z,9.80
2018-10-19T02:25:30.681Z,9.79
2018-10-19T02:26:30.672Z,9.69
2018-10-19T02:27:30.668Z,9.65
2018-10-19T02:28:30.652Z,9.73
2018-10-19T02:29:30.643Z,9.65
2018-10-19T02:30:30.635Z,9.56
2018-10-19T02:31:30.626Z,9.59
2018-10-19T02:32:30.622Z,9.59
2018-10-19T02:33:30.623Z,9.56
2018-10-19T02:34:30.602Z,9.44
2018-10-19T02:35:30.597Z,9.51
2018-10-19T02:36:30.586Z,9.46
2018-10-19T02:37:30.579Z,9.40
2018-10-19T02:38:30.567Z,9.43
2018-10-19T02:39:30.562Z,9.37
2018-10-19T02:40:30.568Z,9.37
2018-10-19T02:41:30.549Z,9.36
2018-10-19T02:42:30.540Z,9.40
2018-10-19T02:43:30.534Z,9.26
2018-10-19T02:44:30.527Z,9.34
2018-10-19T02:45:30.513Z,9.32
2018-10-19T02:46:30.509Z,9.31
2018-10-19T02:47:30.509Z,9.31
2018-10-19T02:48:30.507Z,9.31
2018-10-19T02:49:30.486Z,9.25
2018-10-19T02:50:30.473Z,9.21
2018-10-19T02:51:30.467Z,9.22
2018-10-19T02:52:30.460Z,9.21
2018-10-19T02:53:30.449Z,9.32
2018-10-19T02:54:30.447Z,9.25
2018-10-19T02:55:30.459Z,9.25
2018-10-19T02:56:30.433Z,9.22
2018-10-19T02:57:30.423Z,9.18
2018-10-19T02:58:30.415Z,9.16
2018-10-19T02:59:30.401Z,9.18
2018-10-19T03:00:30.397Z,9.16
2018-10-19T03:01:30.413Z,9.18
2018-10-19T03:03:06.138Z,9.14
2018-10-19T03:03:30.380Z,9.19
2018-10-19T03:04:30.364Z,9.21
2018-10-19T03:05:30.359Z,9.10
2018-10-19T03:06:30.358Z,9.06
2018-10-19T03:07:30.339Z,9.25
2018-10-19T03:08:30.365Z,9.10
2018-10-19T03:09:30.340Z,9.10
2018-10-19T03:10:30.318Z,9.10
2018-10-19T03:11:30.360Z,9.10
2018-10-19T03:12:30.297Z,9.06
2018-10-19T03:13:30.291Z,9.14
2018-10-19T03:14:30.288Z,9.14
2018-10-19T03:15:30.298Z,9.18
2018-10-19T03:16:30.268Z,9.11
2018-10-19T03:17:30.260Z,9.08
2018-10-19T03:18:30.254Z,9.13
2018-10-19T03:19:30.248Z,9.16
2018-10-19T03:20:30.236Z,9.10
2018-10-19T03:21:30.229Z,9.14
2018-10-19T03:22:30.223Z,9.11
2018-10-19T03:23:30.217Z,9.10
2018-10-19T03:24:30.213Z,9.13
2018-10-19T03:25:30.203Z,9.03
2018-10-19T03:26:30.183Z,9.10
2018-10-19T03:27:30.177Z,9.08
2018-10-19T03:28:30.175Z,9.04
2018-10-19T03:29:30.183Z,9.06
2018-10-19T03:30:30.148Z,8.89
2018-10-19T03:31:30.151Z,9.02
2018-10-19T03:32:30.144Z,9.03
2018-10-19T03:33:30.138Z,9.02
2018-10-19T03:34:30.120Z,8.97
2018-10-19T03:35:30.110Z,8.99
2018-10-19T03:36:30.110Z,8.89
2018-10-19T03:37:30.105Z,8.97
2018-10-19T03:38:30.100Z,8.87
2018-10-19T03:39:30.081Z,8.89
2018-10-19T03:40:30.091Z,8.89
2018-10-19T03:41:30.064Z,8.89
2018-10-19T03:42:30.065Z,8.97
2018-10-19T03:43:30.055Z,9.00
2018-10-19T03:44:30.045Z,8.99
2018-10-19T03:45:30.039Z,8.99
2018-10-19T03:46:30.031Z,9.03
2018-10-19T03:47:30.026Z,9.02
2018-10-19T03:48:30.010Z,9.02
2018-10-19T03:49:30.019Z,8.95
2018-10-19T03:50:30.000Z,9.00
2018-10-19T03:51:29.988Z,8.99
2018-10-19T03:52:29.978Z,9.02
2018-10-19T03:53:29.970Z,9.04
2018-10-19T03:54:29.969Z,9.02
2018-10-19T03:55:29.953Z,9.03
2018-10-19T03:56:29.959Z,9.02
2018-10-19T03:57:29.936Z,8.97
2018-10-19T03:58:29.935Z,9.04
2018-10-19T03:59:29.922Z,9.03
2018-10-19T04:00:29.917Z,8.88
2018-10-19T04:01:29.903Z,8.97
2018-10-19T04:02:29.899Z,8.91
2018-10-19T04:03:29.920Z,8.91
2018-10-19T04:04:29.882Z,8.88
2018-10-19T04:05:29.871Z,8.94
2018-10-19T04:06:29.866Z,8.92
2018-10-19T04:07:29.861Z,8.89
2018-10-19T04:08:29.855Z,8.95
2018-10-19T04:09:29.839Z,8.89
2018-10-19T04:10:29.839Z,8.94
2018-10-19T04:11:29.824Z,8.97
2018-10-19T04:12:29.821Z,8.91
2018-10-19T04:13:29.806Z,8.88
2018-10-19T04:14:29.797Z,8.97
2018-10-19T04:15:29.792Z,8.92
2018-10-19T04:16:29.781Z,8.88
2018-10-19T04:17:29.775Z,8.91
2018-10-19T04:18:29.770Z,8.88
2018-10-19T04:19:29.764Z,8.91
2018-10-19T04:20:29.755Z,8.87
2018-10-19T04:21:29.752Z,8.87
2018-10-19T04:22:29.740Z,8.87
2018-10-19T04:23:29.727Z,8.89
2018-10-19T04:24:29.720Z,8.78
2018-10-19T04:25:29.709Z,8.79
2018-10-19T04:26:29.709Z,8.79
2018-10-19T04:27:29.701Z,8.87
2018-10-19T04:28:29.685Z,8.78
2018-10-19T04:29:29.677Z,8.78
2018-10-19T04:30:29.670Z,8.76
2018-10-19T04:31:29.665Z,8.78
2018-10-19T04:32:29.654Z,8.74
2018-10-19T04:33:29.642Z,8.76
2018-10-19T04:34:29.653Z,8.76
2018-10-19T04:35:29.631Z,8.78
2018-10-19T04:36:29.622Z,8.71
2018-10-19T04:37:29.621Z,8.71
2018-10-19T04:38:29.609Z,8.76
2018-10-19T04:39:29.601Z,8.69
2018-10-19T04:40:29.591Z,8.70
2018-10-19T04:41:29.673Z,8.69
2018-10-19T04:42:29.578Z,8.69
2018-10-19T04:43:29.561Z,8.70
2018-10-19T04:44:29.552Z,8.67
2018-10-19T04:45:29.556Z,8.67
2018-10-19T04:46:29.541Z,8.66
2018-10-19T04:47:29.553Z,8.66
2018-10-19T04:48:29.529Z,8.64
2018-10-19T04:49:29.512Z,8.61
2018-10-19T04:50:29.505Z,8.67
2018-10-19T04:51:29.497Z,8.69
2018-10-19T04:52:29.499Z,8.61
2018-10-19T04:53:29.582Z,8.63
2018-10-19T04:54:29.479Z,8.63
2018-10-19T04:55:29.480Z,8.56
2018-10-19T04:56:29.459Z,8.53
2018-10-19T04:57:29.458Z,8.61
2018-10-19T04:58:29.440Z,8.56
2018-10-19T04:59:29.433Z,8.48
2018-10-19T05:00:29.491Z,8.53
2018-10-19T05:01:29.420Z,8.55
2018-10-19T05:02:29.419Z,8.49
2018-10-19T05:03:29.396Z,8.52
2018-10-19T05:04:29.404Z,8.46
2018-10-19T05:05:29.473Z,8.45
2018-10-19T05:06:29.411Z,8.52
2018-10-19T05:07:29.393Z,8.45
2018-10-19T05:08:29.363Z,8.49
2018-10-19T05:09:29.346Z,8.38
2018-10-19T05:10:29.340Z,8.51
2018-10-19T05:11:29.334Z,8.45
2018-10-19T05:12:29.403Z,8.48
2018-10-19T05:13:29.320Z,8.41
2018-10-19T05:14:29.309Z,8.45
2018-10-19T05:15:29.303Z,8.48
2018-10-19T05:16:29.300Z,8.36
2018-10-19T05:17:29.280Z,8.46
2018-10-19T05:18:29.296Z,8.38
2018-10-19T05:19:29.274Z,8.48
2018-10-19T05:20:29.266Z,8.48
2018-10-19T05:21:29.251Z,8.52
2018-10-19T05:22:29.242Z,8.42
2018-10-19T05:23:29.233Z,8.37
2018-10-19T05:24:29.233Z,8.44
2018-10-19T05:25:29.220Z,8.46
2018-10-19T05:26:29.234Z,8.42
2018-10-19T05:27:29.201Z,8.42
2018-10-19T05:28:29.198Z,8.37
2018-10-19T05:29:29.186Z,8.51
2018-10-19T05:30:29.181Z,8.37
2018-10-19T05:31:29.170Z,8.48
2018-10-19T05:32:29.163Z,8.44
2018-10-19T05:33:29.154Z,8.42
2018-10-19T05:34:29.141Z,8.41
2018-10-19T05:35:29.138Z,8.37
2018-10-19T05:36:29.128Z,8.41
2018-10-19T05:37:29.115Z,8.41
2018-10-19T05:38:29.108Z,8.46
2018-10-19T05:39:29.102Z,8.49
2018-10-19T05:40:29.098Z,8.46
2018-10-19T05:41:29.094Z,8.37
2018-10-19T05:42:29.083Z,8.45
2018-10-19T05:43:29.070Z,8.42
2018-10-19T05:44:29.060Z,8.37
2018-10-19T05:45:29.065Z,8.38
2018-10-19T05:46:29.050Z,8.33
2018-10-19T05:47:29.036Z,8.41
2018-10-19T05:48:29.027Z,8.46
2018-10-19T05:49:29.018Z,8.49
2018-10-19T05:50:29.016Z,8.36
2018-10-19T05:51:29.007Z,8.34
2018-10-19T05:52:29.644Z,8.51
2018-10-19T05:53:28.981Z,8.44
2018-10-19T05:54:29.024Z,8.41
2018-10-19T05:55:28.980Z,8.45
2018-10-19T05:56:28.964Z,8.45
2018-10-19T05:57:28.952Z,8.44
2018-10-19T05:58:28.944Z,8.46
2018-10-19T05:59:28.937Z,8.45
2018-10-19T06:00:28.951Z,8.41
2018-10-19T06:01:28.916Z,8.36
2018-10-19T06:02:28.947Z,8.41
2018-10-19T06:03:28.904Z,8.37
2018-10-19T06:04:28.892Z,8.44
2018-10-19T06:05:28.885Z,8.48
2018-10-19T06:06:28.878Z,8.51
2018-10-19T06:07:28.871Z,8.42
2018-10-19T06:08:28.864Z,8.41
2018-10-19T06:09:28.852Z,8.37
2018-10-19T06:10:28.841Z,8.46
2018-10-19T06:11:28.832Z,8.45
2018-10-19T06:12:28.823Z,8.38
2018-10-19T06:13:28.868Z,8.36
2018-10-19T06:14:28.810Z,8.53
2018-10-19T06:15:28.805Z,8.41
2018-10-19T06:16:28.800Z,8.45
2018-10-19T06:17:28.811Z,8.38
2018-10-19T06:18:28.772Z,8.46
2018-10-19T06:19:28.769Z,8.38
2018-10-19T06:20:28.773Z,8.45
2018-10-19T06:21:28.750Z,8.42
2018-10-19T06:22:28.768Z,8.48
2018-10-19T06:23:28.745Z,8.44
2018-10-19T06:24:28.723Z,8.42
2018-10-19T06:25:28.719Z,8.38
2018-10-19T06:26:28.801Z,8.42
2018-10-19T06:27:28.734Z,8.45
2018-10-19T06:28:28.695Z,8.45
2018-10-19T06:29:28.703Z,8.44
2018-10-19T06:30:28.686Z,8.45
2018-10-19T06:31:28.668Z,8.49
2018-10-19T06:32:28.661Z,8.56
2018-10-19T06:33:28.654Z,8.55
2018-10-19T06:34:28.662Z,8.60
2018-10-19T06:35:28.694Z,8.61
2018-10-19T06:36:28.632Z,8.64
2018-10-19T06:37:28.626Z,8.63
2018-10-19T06:38:28.614Z,8.61
2018-10-19T06:39:28.602Z,8.55
2018-10-19T06:40:28.597Z,8.52
2018-10-19T06:41:28.601Z,8.61
2018-10-19T06:42:28.574Z,8.51
2018-10-19T06:43:28.578Z,8.61
2018-10-19T06:44:28.568Z,8.70
2018-10-19T06:45:28.553Z,8.64
2018-10-19T06:46:28.576Z,8.63
2018-10-19T06:47:28.596Z,8.61
2018-10-19T06:48:29.182Z,8.64
2018-10-19T06:49:28.523Z,8.64
2018-10-19T06:50:28.519Z,8.60
2018-10-19T06:51:28.505Z,8.69
2018-10-19T06:52:28.493Z,8.66
2018-10-19T06:53:28.491Z,8.69
2018-10-19T06:54:28.483Z,8.67
2018-10-19T06:55:28.472Z,8.73
2018-10-19T06:56:28.473Z,8.66
2018-10-19T06:57:28.456Z,8.67
2018-10-19T06:58:28.452Z,8.66
2018-10-19T06:59:28.489Z,8.66
2018-10-19T07:00:28.430Z,8.70
2018-10-19T07:01:28.420Z,8.70
2018-10-19T07:02:28.421Z,8.63
2018-10-19T07:03:28.404Z,8.74
2018-10-19T07:04:28.399Z,8.78
2018-10-19T07:05:28.403Z,8.76
2018-10-19T07:06:28.380Z,8.78
2018-10-19T07:07:28.377Z,8.81
2018-10-19T07:08:28.465Z,8.82
2018-10-19T07:09:28.360Z,8.84
2018-10-19T07:10:28.354Z,8.91
2018-10-19T07:11:28.348Z,8.85
2018-10-19T07:12:28.340Z,8.97
2018-10-19T07:13:28.329Z,8.92
2018-10-19T07:14:28.318Z,8.89
2018-10-19T07:15:28.318Z,8.97
2018-10-19T07:16:28.305Z,9.03
2018-10-19T07:17:28.298Z,9.04
2018-10-19T07:18:28.287Z,9.10
2018-10-19T07:19:28.285Z,9.11
2018-10-19T07:20:28.274Z,9.14
2018-10-19T07:21:28.268Z,9.14
2018-10-19T07:22:28.257Z,9.14
2018-10-19T07:23:28.248Z,9.14
2018-10-19T07:24:28.244Z,9.18
2018-10-19T07:25:28.230Z,9.14
2018-10-19T07:26:28.229Z,9.11
2018-10-19T07:27:28.218Z,9.14
2018-10-19T07:28:28.205Z,9.18
2018-10-19T07:29:28.215Z,9.18
2018-10-19T07:30:28.191Z,9.11
2018-10-19T07:31:28.187Z,9.06
2018-10-19T07:32:28.175Z,9.06
2018-10-19T07:33:28.174Z,9.08
2018-10-19T07:34:28.161Z,9.21
2018-10-19T07:35:28.153Z,9.08
2018-10-19T07:36:28.224Z,9.19
2018-10-19T07:37:28.136Z,9.22
2018-10-19T07:38:28.132Z,9.21
2018-10-19T07:39:28.119Z,9.18
2018-10-19T07:40:28.120Z,9.21
2018-10-19T07:41:28.111Z,9.21
2018-10-19T07:42:28.161Z,9.29
2018-10-19T07:43:28.097Z,9.34
2018-10-19T07:44:28.083Z,9.32
2018-10-19T07:45:28.075Z,9.26
2018-10-19T07:46:28.075Z,9.37
2018-10-19T07:47:28.144Z,9.37
2018-10-19T07:48:28.077Z,9.40
2018-10-19T07:49:28.050Z,9.37
2018-10-19T07:50:28.045Z,9.46
2018-10-19T07:51:28.034Z,9.41
2018-10-19T07:52:28.027Z,9.46
2018-10-19T07:53:28.021Z,9.44
2018-10-19T07:54:28.033Z,9.43
2018-10-19T07:55:28.008Z,9.47
2018-10-19T07:56:27.994Z,9.47
2018-10-19T07:57:27.989Z,9.50
2018-10-19T07:58:27.978Z,9.46
2018-10-19T07:59:27.973Z,9.55
2018-10-19T08:00:27.993Z,9.48
2018-10-19T08:01:27.961Z,9.56
2018-10-19T08:02:27.947Z,9.54
2018-10-19T08:03:27.944Z,9.56
2018-10-19T08:04:27.937Z,9.59
2018-10-19T08:05:27.931Z,9.55
2018-10-19T08:06:27.920Z,9.65
2018-10-19T08:07:27.914Z,9.66
2018-10-19T08:08:27.906Z,9.68
2018-10-19T08:09:27.901Z,9.64
2018-10-19T08:10:27.893Z,9.72
2018-10-19T08:11:27.939Z,9.69
2018-10-19T08:12:27.878Z,9.74
2018-10-19T08:13:27.867Z,9.68
2018-10-19T08:14:27.869Z,9.74
2018-10-19T08:15:27.857Z,9.68
2018-10-19T08:16:27.867Z,9.83
2018-10-19T08:17:27.846Z,9.89
2018-10-19T08:18:27.833Z,9.89
2018-10-19T08:19:27.834Z,9.84
2018-10-19T08:20:27.819Z,9.86
2018-10-19T08:21:27.813Z,9.86
2018-10-19T08:22:27.805Z,9.91
2018-10-19T08:23:27.797Z,9.84
2018-10-19T08:24:27.789Z,9.97
2018-10-19T08:25:27.784Z,10.01
2018-10-19T08:26:27.775Z,9.99
2018-10-19T08:27:27.828Z,9.91
2018-10-19T08:28:27.765Z,9.94
2018-10-19T08:29:27.753Z,9.94
2018-10-19T08:30:27.748Z,9.99
2018-10-19T08:31:27.740Z,9.99
2018-10-19T08:32:27.739Z,10.15
2018-10-19T08:33:27.724Z,10.12
2018-10-19T08:34:27.729Z,10.13
2018-10-19T08:35:27.724Z,10.16
2018-10-19T08:36:27.705Z,10.20
2018-10-19T08:37:27.710Z,10.25
2018-10-19T08:38:27.694Z,10.42
2018-10-19T08:39:27.684Z,10.56
2018-10-19T08:40:27.678Z,10.64
2018-10-19T08:41:27.735Z,10.78
2018-10-19T08:42:27.674Z,10.89
2018-10-19T08:43:27.663Z,11.07
2018-10-19T08:44:27.662Z,11.26
2018-10-19T08:45:27.652Z,11.41
2018-10-19T08:46:27.644Z,11.45
2018-10-19T08:47:27.654Z,11.40
2018-10-19T08:48:27.640Z,11.47
2018-10-19T08:49:27.633Z,11.63
2018-10-19T08:50:27.626Z,11.68
2018-10-19T08:51:27.621Z,11.72
2018-10-19T08:52:27.616Z,11.75
2018-10-19T08:53:27.634Z,11.88
2018-10-19T08:54:27.635Z,11.90
2018-10-19T08:55:27.638Z,12.04
2018-10-19T08:56:27.594Z,12.27
2018-10-19T08:57:27.595Z,12.36
2018-10-19T08:58:27.596Z,12.43
2018-10-19T08:59:27.589Z,12.53
2018-10-19T09:00:27.581Z,12.70
2018-10-19T09:01:27.579Z,12.82
2018-10-19T09:02:27.577Z,12.86
2018-10-19T09:03:27.578Z,13.01
2018-10-19T09:04:27.575Z,13.03
2018-10-19T09:05:27.569Z,13.09
2018-10-19T09:06:27.564Z,13.00
2018-10-19T09:07:27.563Z,13.05
2018-10-19T09:08:27.563Z,13.12
2018-10-19T09:09:27.559Z,13.25
2018-10-19T09:10:27.557Z,13.38
2018-10-19T09:11:27.659Z,13.44
2018-10-19T09:12:27.572Z,13.63
2018-10-19T09:13:27.553Z,13.75
2018-10-19T09:14:27.559Z,13.92
2018-10-19T09:15:27.550Z,13.95
2018-10-19T09:16:27.550Z,14.05
2018-10-19T09:17:27.553Z,14.20
2018-10-19T09:18:27.604Z,14.17
2018-10-19T09:19:27.546Z,14.12
2018-10-19T09:20:27.549Z,14.23
2018-10-19T09:21:27.546Z,14.17
2018-10-19T09:22:27.542Z,14.14
2018-10-19T09:23:27.545Z,14.11
2018-10-19T09:24:27.553Z,14.14
2018-10-19T09:25:29.096Z,14.20
2018-10-19T09:26:30.067Z,14.17
2018-10-19T09:27:30.605Z,14.26
2018-10-19T09:28:29.495Z,14.23
2018-10-19T09:29:27.898Z,14.17
2018-10-19T09:30:30.043Z,14.17
2018-10-19T09:31:27.549Z,14.15
2018-10-19T09:32:28.403Z,14.15
2018-10-19T09:33:28.344Z,14.14
2018-10-19T09:34:36.032Z,14.15
2018-10-19T09:36:21.773Z,14.28
2018-10-19T09:37:21.227Z,14.47
2018-10-19T09:38:30.187Z,14.62
2018-10-19T09:40:14.931Z,15.22
2018-10-19T09:41:14.838Z,15.37
2018-10-19T09:43:08.513Z,15.51
2018-10-19T09:44:08.452Z,15.57
2018-10-19T09:45:08.466Z,15.62
2018-10-19T09:46:08.458Z,15.49
2018-10-19T09:47:08.527Z,15.27
2018-10-19T09:48:08.455Z,15.21
2018-10-19T09:49:08.507Z,15.15
2018-10-19T09:50:08.452Z,15.02
2018-10-19T09:51:08.502Z,14.85
2018-10-19T09:52:08.469Z,14.82
2018-10-19T09:53:08.542Z,14.81
2018-10-19T09:54:08.457Z,14.92
2018-10-19T09:55:08.511Z,14.94
2018-10-19T09:56:08.593Z,14.94
2018-10-19T09:57:08.476Z,14.92
2018-10-19T09:58:08.468Z,14.94
2018-10-19T09:59:08.566Z,14.89
2018-10-19T10:00:08.468Z,15.06
2018-10-19T10:01:08.488Z,14.99
2018-10-19T10:02:08.645Z,15.03
2018-10-19T10:03:08.512Z,15.14
2018-10-19T10:04:09.526Z,15.35
2018-10-19T10:05:09.757Z,15.33
2018-10-19T10:06:09.666Z,15.31
2018-10-19T10:07:09.733Z,15.17
2018-10-19T10:08:08.481Z,15.18
2018-10-19T10:09:08.486Z,15.37
2018-10-19T10:10:08.487Z,15.29
2018-10-19T10:11:08.561Z,15.40
2018-10-19T10:12:08.484Z,15.62
2018-10-19T10:13:08.550Z,15.97
2018-10-19T10:14:08.491Z,16.32
2018-10-19T10:15:08.617Z,16.75
2018-10-19T10:16:08.496Z,16.91
2018-10-19T10:17:08.552Z,16.87
2018-10-19T10:18:08.493Z,16.99
2018-10-19T10:19:08.511Z,17.06
2018-10-19T10:20:08.495Z,17.26
2018-10-19T10:21:08.501Z,17.42
2018-10-19T10:22:08.558Z,17.48
2018-10-19T10:23:09.690Z,17.44
2018-10-19T10:24:09.377Z,17.09
2018-10-19T10:25:09.397Z,16.86
2018-10-19T10:26:08.504Z,16.75
2018-10-19T10:27:08.888Z,16.66
2018-10-19T10:28:09.728Z,16.47
2018-10-19T10:29:08.512Z,16.46
2018-10-19T10:30:08.514Z,16.29
2018-10-19T10:31:08.561Z,16.10
2018-10-19T10:32:08.550Z,15.92
2018-10-19T10:33:08.512Z,15.92
2018-10-19T10:34:08.556Z,15.92
2018-10-19T10:35:08.527Z,15.84
2018-10-19T10:36:08.509Z,15.95
2018-10-19T10:37:08.584Z,15.95
2018-10-19T10:38:08.515Z,16.21
2018-10-19T10:39:08.749Z,16.26
2018-10-19T10:40:08.555Z,16.36
2018-10-19T10:41:08.532Z,16.38
2018-10-19T10:42:08.527Z,16.46
2018-10-19T10:43:08.554Z,16.56
2018-10-19T10:44:08.522Z,16.60
2018-10-19T10:45:08.525Z,16.58
2018-10-19T10:46:08.540Z,16.65
2018-10-19T10:47:08.577Z,16.94
2018-10-19T10:48:08.528Z,17.06
2018-10-19T10:49:08.578Z,17.04
2018-10-19T10:50:08.526Z,16.79
2018-10-19T10:51:08.528Z,16.64
2018-10-19T10:52:08.595Z,16.71
2018-10-19T10:53:08.526Z,16.50
2018-10-19T10:54:08.530Z,16.46
2018-10-19T10:55:08.536Z,16.36
2018-10-19T10:56:09.724Z,16.31
2018-10-19T10:57:08.788Z,16.31
2018-10-19T10:58:09.814Z,16.33
2018-10-19T10:59:09.733Z,16.35
2018-10-19T11:00:09.718Z,16.32
2018-10-19T11:01:09.848Z,16.28
2018-10-19T11:02:08.681Z,16.28
2018-10-19T11:03:09.743Z,16.31
2018-10-19T11:04:08.551Z,16.39
2018-10-19T11:05:08.539Z,16.39
2018-10-19T11:06:08.539Z,16.50
2018-10-19T11:07:08.609Z,16.43
2018-10-19T11:08:08.548Z,16.49
2018-10-19T11:09:08.551Z,16.43
2018-10-19T11:10:08.587Z,16.56
2018-10-19T11:11:08.543Z,16.74
2018-10-19T11:12:08.546Z,16.78
2018-10-19T11:13:08.648Z,16.86
2018-10-19T11:14:08.546Z,16.90
2018-10-19T11:15:08.549Z,17.02
2018-10-19T11:16:08.742Z,16.99
2018-10-19T11:17:08.558Z,17.19
2018-10-19T11:18:08.551Z,17.45
2018-10-19T11:19:08.620Z,17.90
2018-10-19T11:20:09.761Z,18.20
2018-10-19T11:21:08.667Z,18.34
2018-10-19T11:22:08.603Z,18.43
2018-10-19T11:23:08.555Z,18.31
2018-10-19T11:24:08.647Z,18.28
2018-10-19T11:25:08.599Z,18.44
2018-10-19T11:26:08.558Z,18.23
2018-10-19T11:27:08.563Z,18.29
2018-10-19T11:28:08.670Z,18.28
2018-10-19T11:29:08.573Z,18.43
2018-10-19T11:30:08.568Z,18.31
2018-10-19T11:31:08.599Z,18.28
2018-10-19T11:32:08.574Z,18.13
2018-10-19T11:33:08.581Z,18.01
2018-10-19T11:34:08.645Z,17.90
2018-10-19T11:35:08.582Z,17.83
2018-10-19T11:36:08.585Z,17.80
2018-10-19T11:37:08.721Z,17.71
2018-10-19T11:38:08.636Z,17.71
2018-10-19T11:39:08.598Z,17.74
2018-10-19T11:40:08.625Z,17.82
2018-10-19T11:41:08.596Z,17.78
2018-10-19T11:42:08.607Z,17.80
2018-10-19T11:43:08.665Z,17.76
2018-10-19T11:44:08.611Z,17.82
2018-10-19T11:45:08.617Z,17.68
2018-10-19T11:46:08.684Z,17.68
2018-10-19T11:47:08.613Z,17.74
2018-10-19T11:48:08.618Z,17.64
2018-10-19T11:49:08.657Z,17.70
2018-10-19T11:50:08.618Z,17.67
2018-10-19T11:51:08.632Z,17.74
2018-10-19T11:52:08.655Z,17.83
2018-10-19T11:53:08.627Z,17.97
2018-10-19T11:54:08.632Z,18.16
2018-10-19T11:55:08.741Z,18.31
2018-10-19T11:56:08.638Z,18.38
2018-10-19T11:57:08.697Z,18.55
2018-10-19T11:58:08.672Z,18.63
2018-10-19T11:59:08.641Z,18.81
2018-10-19T12:00:08.643Z,18.81
2018-10-19T12:01:08.679Z,18.77
2018-10-19T12:02:08.653Z,18.74
2018-10-19T12:03:08.656Z,18.83
2018-10-19T12:04:08.670Z,18.78
2018-10-19T12:05:08.657Z,18.75
2018-10-19T12:06:08.662Z,18.78
2018-10-19T12:07:08.738Z,18.68
2018-10-19T12:08:08.666Z,18.84
2018-10-19T12:09:08.668Z,19.29
2018-10-19T12:10:08.734Z,19.26
2018-10-19T12:11:08.668Z,19.14
2018-10-19T12:12:08.674Z,18.93
2018-10-19T12:13:08.742Z,18.89
2018-10-19T12:14:08.684Z,18.90
2018-10-19T12:15:08.700Z,19.07
2018-10-19T12:16:08.704Z,19.22
2018-10-19T12:17:08.805Z,19.51
2018-10-19T12:18:08.686Z,19.62
2018-10-19T12:19:08.730Z,19.63
2018-10-19T12:20:08.692Z,19.67
2018-10-19T12:21:08.753Z,19.66
2018-10-19T12:22:08.699Z,19.52
2018-10-19T12:23:08.704Z,19.26
2018-10-19T12:24:08.700Z,19.11
2018-10-19T12:25:16.757Z,19.02
2018-10-19T12:27:10.539Z,18.84
2018-10-19T12:28:10.354Z,18.71
2018-10-19T12:29:56.235Z,18.58
2018-10-19T12:30:56.249Z,18.53
2018-10-19T12:31:56.861Z,18.55
2018-10-19T12:32:56.207Z,18.56
2018-10-19T12:33:56.199Z,18.63
2018-10-19T12:34:56.203Z,18.71
2018-10-19T12:35:56.205Z,18.81
2018-10-19T12:36:56.235Z,18.84
2018-10-19T12:37:56.216Z,18.73
2018-10-19T12:38:56.245Z,18.80
2018-10-19T12:39:56.228Z,18.73
2018-10-19T12:40:56.278Z,18.45
2018-10-19T12:41:56.234Z,18.41
2018-10-19T12:42:56.224Z,18.31
2018-10-19T12:43:56.218Z,18.37
2018-10-19T12:44:56.241Z,18.29
2018-10-19T12:45:56.220Z,18.16
2018-10-19T12:46:56.237Z,18.23
2018-10-19T12:47:56.228Z,18.28
2018-10-19T12:48:56.243Z,18.58
2018-10-19T12:49:56.232Z,19.02
2018-10-19T12:50:56.287Z,19.44
2018-10-19T12:51:56.227Z,19.55
2018-10-19T12:52:56.229Z,19.48
2018-10-19T12:53:56.329Z,19.37
2018-10-19T12:54:56.239Z,19.26
2018-10-19T12:55:56.232Z,19.02
2018-10-19T12:56:56.270Z,18.92
2018-10-19T12:57:56.245Z,18.73
2018-10-19T12:58:56.235Z,18.59
2018-10-19T12:59:56.277Z,18.52
2018-10-19T13:00:56.243Z,18.55
2018-10-19T13:01:56.250Z,18.63
2018-10-19T13:02:56.285Z,18.55
2018-10-19T13:03:56.245Z,18.58
2018-10-19T13:04:56.258Z,18.55
2018-10-19T13:05:56.244Z,18.55
2018-10-19T13:06:56.254Z,18.55
2018-10-19T13:07:56.244Z,18.38
2018-10-19T13:08:56.252Z,18.25
2018-10-19T13:09:56.240Z,18.20
2018-10-19T13:10:56.242Z,18.44